sensor_id;sensor_type;location;lat;lon;timestamp;pressure;altitude;pressure_sealevel;temperature;humidity
68859;BME280;55864;49.238;8.092;2023-04-22T00:01:27;98754.34;;;11.51;83.31
68859;BME280;55864;49.238;8.092;2023-04-22T00:03:28;98756.00;;;11.52;83.12
68859;BME280;55864;49.238;8.092;2023-04-22T00:05:29;98746.44;;;11.51;83.06
68859;BME280;55864;49.238;8.092;2023-04-22T00:07:29;98754.16;;;11.53;83.15
68859;BME280;55864;49.238;8.092;2023-04-22T00:09:30;98747.44;;;11.50;82.81
68859;BME280;55864;49.238;8.092;2023-04-22T00:11:30;98746.63;;;11.50;82.95
68859;BME280;55864;49.238;8.092;2023-04-22T00:13:31;98748.25;;;11.51;82.91
68859;BME280;55864;49.238;8.092;2023-04-22T00:15:31;98739.56;;;11.50;82.78
68859;BME280;55864;49.238;8.092;2023-04-22T00:17:33;98737.91;;;11.49;82.84
68859;BME280;55864;49.238;8.092;2023-04-22T00:19:34;98743.16;;;11.49;83.12
68859;BME280;55864;49.238;8.092;2023-04-22T00:21:34;98737.25;;;11.47;82.85
68859;BME280;55864;49.238;8.092;2023-04-22T00:23:35;98733.81;;;11.47;82.61
68859;BME280;55864;49.238;8.092;2023-04-22T00:25:36;98731.97;;;11.47;82.61
68859;BME280;55864;49.238;8.092;2023-04-22T00:27:36;98727.53;;;11.48;83.07
68859;BME280;55864;49.238;8.092;2023-04-22T00:29:37;98726.72;;;11.47;82.82
68859;BME280;55864;49.238;8.092;2023-04-22T00:31:37;98727.72;;;11.46;83.26
68859;BME280;55864;49.238;8.092;2023-04-22T00:33:39;98724.09;;;11.47;83.13
68859;BME280;55864;49.238;8.092;2023-04-22T00:35:40;98726.88;;;11.46;83.07
68859;BME280;55864;49.238;8.092;2023-04-22T00:37:40;98722.47;;;11.46;83.13
68859;BME280;55864;49.238;8.092;2023-04-22T00:39:41;98723.44;;;11.45;83.36
68859;BME280;55864;49.238;8.092;2023-04-22T00:41:42;98722.63;;;11.45;82.96
68859;BME280;55864;49.238;8.092;2023-04-22T00:43:42;98730.34;;;11.46;82.96
68859;BME280;55864;49.238;8.092;2023-04-22T00:45:43;98731.31;;;11.45;82.69
68859;BME280;55864;49.238;8.092;2023-04-22T00:47:44;98728.84;;;11.44;82.30
68859;BME280;55864;49.238;8.092;2023-04-22T00:49:47;98732.31;;;11.44;82.86
68859;BME280;55864;49.238;8.092;2023-04-22T00:51:48;98729.69;;;11.44;82.75
68859;BME280;55864;49.238;8.092;2023-04-22T00:53:48;98732.31;;;11.44;82.71
68859;BME280;55864;49.238;8.092;2023-04-22T00:55:49;98728.84;;;11.44;82.80
68859;BME280;55864;49.238;8.092;2023-04-22T00:57:51;98734.94;;;11.44;82.44
68859;BME280;55864;49.238;8.092;2023-04-22T00:59:53;98732.50;;;11.43;82.77
68859;BME280;55864;49.238;8.092;2023-04-22T01:01:54;98728.03;;;11.43;82.51
68859;BME280;55864;49.238;8.092;2023-04-22T01:03:55;98721.16;;;11.42;82.44
68859;BME280;55864;49.238;8.092;2023-04-22T01:05:57;98728.84;;;11.44;82.45
68859;BME280;55864;49.238;8.092;2023-04-22T01:07:58;98734.28;;;11.42;82.30
68859;BME280;55864;49.238;8.092;2023-04-22T01:09:59;98729.03;;;11.42;82.24
68859;BME280;55864;49.238;8.092;2023-04-22T01:11:59;98723.78;;;11.42;82.21
68859;BME280;55864;49.238;8.092;2023-04-22T01:14:00;98721.97;;;11.43;82.07
68859;BME280;55864;49.238;8.092;2023-04-22T01:16:01;98726.41;;;11.42;82.60
68859;BME280;55864;49.238;8.092;2023-04-22T01:18:02;98731.66;;;11.42;82.55
68859;BME280;55864;49.238;8.092;2023-04-22T01:20:04;98726.09;;;11.29;82.83
68859;BME280;55864;49.238;8.092;2023-04-22T01:22:06;98719.00;;;11.05;81.48
68859;BME280;55864;49.238;8.092;2023-04-22T01:24:09;98720.31;;;10.93;81.87
68859;BME280;55864;49.238;8.092;2023-04-22T01:26:10;98725.72;;;10.84;81.24
68859;BME280;55864;49.238;8.092;2023-04-22T01:28:11;98729.31;;;10.75;81.15
68859;BME280;55864;49.238;8.092;2023-04-22T01:30:12;98723.53;;;10.63;80.78
68859;BME280;55864;49.238;8.092;2023-04-22T01:32:13;98733.03;;;10.56;80.63
68859;BME280;55864;49.238;8.092;2023-04-22T01:34:13;98731.72;;;10.52;80.62
68859;BME280;55864;49.238;8.092;2023-04-22T01:36:14;98734.81;;;10.48;81.32
68859;BME280;55864;49.238;8.092;2023-04-22T01:38:15;98738.94;;;10.58;82.29
68859;BME280;55864;49.238;8.092;2023-04-22T01:40:18;98736.66;;;10.71;82.82
68859;BME280;55864;49.238;8.092;2023-04-22T01:42:20;98734.72;;;10.81;83.07
68859;BME280;55864;49.238;8.092;2023-04-22T01:44:21;98735.88;;;10.87;82.86
68859;BME280;55864;49.238;8.092;2023-04-22T01:46:21;98736.25;;;10.92;82.79
68859;BME280;55864;49.238;8.092;2023-04-22T01:48:22;98734.91;;;10.96;82.96
68859;BME280;55864;49.238;8.092;2023-04-22T01:50:23;98739.69;;;11.00;82.97
68859;BME280;55864;49.238;8.092;2023-04-22T01:52:25;98735.59;;;11.06;82.72
68859;BME280;55864;49.238;8.092;2023-04-22T01:54:27;98740.84;;;11.06;82.73
68859;BME280;55864;49.238;8.092;2023-04-22T01:56:29;98740.84;;;11.06;82.42
68859;BME280;55864;49.238;8.092;2023-04-22T01:58:31;98744.97;;;11.08;82.35
68859;BME280;55864;49.238;8.092;2023-04-22T02:00:32;98741.16;;;11.11;82.78
68859;BME280;55864;49.238;8.092;2023-04-22T02:02:33;98748.91;;;11.12;82.63
68859;BME280;55864;49.238;8.092;2023-04-22T02:04:33;98749.41;;;11.08;82.66
68859;BME280;55864;49.238;8.092;2023-04-22T02:06:34;98743.97;;;11.09;82.44
68859;BME280;55864;49.238;8.092;2023-04-22T02:08:38;98753.50;;;11.10;82.22
68859;BME280;55864;49.238;8.092;2023-04-22T02:10:39;98748.56;;;11.07;82.20
68859;BME280;55864;49.238;8.092;2023-04-22T02:12:42;98755.78;;;11.05;82.28
68859;BME280;55864;49.238;8.092;2023-04-22T02:14:42;98756.63;;;11.06;82.43
68859;BME280;55864;49.238;8.092;2023-04-22T02:16:43;98758.59;;;11.04;82.72
68859;BME280;55864;49.238;8.092;2023-04-22T02:18:44;98763.66;;;11.05;82.63
68859;BME280;55864;49.238;8.092;2023-04-22T02:20:44;98761.22;;;11.04;82.33
68859;BME280;55864;49.238;8.092;2023-04-22T02:22:45;98757.44;;;11.06;82.48
68859;BME280;55864;49.238;8.092;2023-04-22T02:24:46;98756.63;;;11.06;82.63
68859;BME280;55864;49.238;8.092;2023-04-22T02:26:46;98761.88;;;11.06;83.06
68859;BME280;55864;49.238;8.092;2023-04-22T02:28:48;98760.38;;;11.03;83.03
68859;BME280;55864;49.238;8.092;2023-04-22T02:30:49;98765.16;;;11.00;82.81
68859;BME280;55864;49.238;8.092;2023-04-22T02:32:49;98765.97;;;11.00;82.64
68859;BME280;55864;49.238;8.092;2023-04-22T02:34:50;98760.22;;;10.97;82.80
68859;BME280;55864;49.238;8.092;2023-04-22T02:36:50;98771.06;;;10.94;82.91
68859;BME280;55864;49.238;8.092;2023-04-22T02:38:52;98760.56;;;10.94;82.30
68859;BME280;55864;49.238;8.092;2023-04-22T02:40:53;98756.28;;;10.93;82.64
68859;BME280;55864;49.238;8.092;2023-04-22T02:42:54;98763.31;;;10.92;82.45
68859;BME280;55864;49.238;8.092;2023-04-22T02:44:57;98761.53;;;10.93;82.62
68859;BME280;55864;49.238;8.092;2023-04-22T02:46:57;98763.31;;;10.92;82.83
68859;BME280;55864;49.238;8.092;2023-04-22T02:48:58;98763.50;;;10.91;82.53
68859;BME280;55864;49.238;8.092;2023-04-22T02:50:58;98761.19;;;10.88;82.61
68859;BME280;55864;49.238;8.092;2023-04-22T02:52:59;98758.88;;;10.85;82.07
68859;BME280;55864;49.238;8.092;2023-04-22T02:55:00;98757.25;;;10.84;81.96
68859;BME280;55864;49.238;8.092;2023-04-22T02:57:00;98765.97;;;10.84;81.87
68859;BME280;55864;49.238;8.092;2023-04-22T02:59:01;98768.88;;;10.81;81.80
68859;BME280;55864;49.238;8.092;2023-04-22T03:01:03;98762.13;;;10.79;81.68
68859;BME280;55864;49.238;8.092;2023-04-22T03:03:03;98763.47;;;10.75;81.77
68859;BME280;55864;49.238;8.092;2023-04-22T03:05:08;98759.44;;;10.55;81.75
68859;BME280;55864;49.238;8.092;2023-04-22T03:07:08;98763.47;;;10.33;80.59
68859;BME280;55864;49.238;8.092;2023-04-22T03:09:09;98760.47;;;10.20;80.64
68859;BME280;55864;49.238;8.092;2023-04-22T03:11:09;98758.69;;;10.28;81.63
68859;BME280;55864;49.238;8.092;2023-04-22T03:13:11;98760.38;;;10.37;82.19
68859;BME280;55864;49.238;8.092;2023-04-22T03:15:12;98765.66;;;10.46;81.82
68859;BME280;55864;49.238;8.092;2023-04-22T03:17:14;98760.41;;;10.46;81.70
68859;BME280;55864;49.238;8.092;2023-04-22T03:19:15;98761.06;;;10.48;82.19
68859;BME280;55864;49.238;8.092;2023-04-22T03:21:15;98759.69;;;10.35;81.88
68859;BME280;55864;49.238;8.092;2023-04-22T03:23:16;98758.81;;;10.19;81.48
68859;BME280;55864;49.238;8.092;2023-04-22T03:25:16;98754.69;;;10.16;81.60
68859;BME280;55864;49.238;8.092;2023-04-22T03:27:23;98754.25;;;10.03;80.63
68859;BME280;55864;49.238;8.092;2023-04-22T03:29:24;98751.09;;;9.92;81.06
68859;BME280;55864;49.238;8.092;2023-04-22T03:31:24;98747.44;;;9.85;81.54
68859;BME280;55864;49.238;8.092;2023-04-22T03:33:26;98755.91;;;9.79;80.88
68859;BME280;55864;49.238;8.092;2023-04-22T03:35:36;98756.09;;;9.77;82.14
68859;BME280;55864;49.238;8.092;2023-04-22T03:37:37;98761.25;;;9.69;81.80
68859;BME280;55864;49.238;8.092;2023-04-22T03:39:38;98764.31;;;9.57;81.66
68859;BME280;55864;49.238;8.092;2023-04-22T03:41:39;98755.50;;;9.66;82.20
68859;BME280;55864;49.238;8.092;2023-04-22T03:43:40;98752.69;;;9.85;82.58
68859;BME280;55864;49.238;8.092;2023-04-22T03:45:43;98748.00;;;9.96;83.03
68859;BME280;55864;49.238;8.092;2023-04-22T03:47:57;98751.63;;;10.03;82.82
68859;BME280;55864;49.238;8.092;2023-04-22T03:50:08;98760.59;;;10.10;82.75
68859;BME280;55864;49.238;8.092;2023-04-22T03:52:09;98754.34;;;10.11;81.86
68859;BME280;55864;49.238;8.092;2023-04-22T03:54:13;98752.91;;;10.17;82.22
68859;BME280;55864;49.238;8.092;2023-04-22T03:56:20;98761.09;;;10.22;81.90
68859;BME280;55864;49.238;8.092;2023-04-22T03:58:22;98753.41;;;10.20;81.96
68859;BME280;55864;49.238;8.092;2023-04-22T04:00:25;98742.56;;;10.15;82.09
68859;BME280;55864;49.238;8.092;2023-04-22T04:02:37;98750.44;;;10.15;82.01
68859;BME280;55864;49.238;8.092;2023-04-22T04:04:38;98749.16;;;10.19;81.55
68859;BME280;55864;49.238;8.092;2023-04-22T04:06:41;98746.53;;;10.19;81.67
68859;BME280;55864;49.238;8.092;2023-04-22T04:08:41;98741.28;;;10.19;81.36
68859;BME280;55864;49.238;8.092;2023-04-22T04:10:42;98745.69;;;10.19;81.39
68859;BME280;55864;49.238;8.092;2023-04-22T04:12:43;98741.09;;;10.21;81.27
68859;BME280;55864;49.238;8.092;2023-04-22T04:14:43;98745.53;;;10.20;81.07
68859;BME280;55864;49.238;8.092;2023-04-22T04:16:47;98747.47;;;10.18;80.41
68859;BME280;55864;49.238;8.092;2023-04-22T04:18:58;98744.84;;;10.18;80.75
68859;BME280;55864;49.238;8.092;2023-04-22T04:21:00;98752.72;;;10.18;80.95
68859;BME280;55864;49.238;8.092;2023-04-22T04:23:06;98752.72;;;10.18;80.67
68859;BME280;55864;49.238;8.092;2023-04-22T04:25:07;98744.84;;;10.18;80.97
68859;BME280;55864;49.238;8.092;2023-04-22T04:27:11;98748.16;;;10.20;80.97
68859;BME280;55864;49.238;8.092;2023-04-22T04:29:18;98745.38;;;10.22;80.91
68859;BME280;55864;49.238;8.092;2023-04-22T04:31:24;98740.28;;;10.20;80.68
68859;BME280;55864;49.238;8.092;2023-04-22T04:33:26;98735.84;;;10.21;80.69
68859;BME280;55864;49.238;8.092;2023-04-22T04:35:26;98740.44;;;10.19;80.47
68859;BME280;55864;49.238;8.092;2023-04-22T04:37:29;98732.41;;;10.20;80.36
68859;BME280;55864;49.238;8.092;2023-04-22T04:39:36;98729.78;;;10.20;80.15
68859;BME280;55864;49.238;8.092;2023-04-22T04:41:37;98733.22;;;10.21;80.38
68859;BME280;55864;49.238;8.092;2023-04-22T04:43:39;98731.44;;;10.21;80.29
68859;BME280;55864;49.238;8.092;2023-04-22T04:45:52;98730.16;;;10.25;80.59
68859;BME280;55864;49.238;8.092;2023-04-22T04:47:59;98726.53;;;10.26;80.30
68859;BME280;55864;49.238;8.092;2023-04-22T04:50:07;98729.81;;;10.28;80.95
68859;BME280;55864;49.238;8.092;2023-04-22T04:52:09;98732.28;;;10.30;80.83
68859;BME280;55864;49.238;8.092;2023-04-22T04:54:09;98737.03;;;10.26;81.10
68859;BME280;55864;49.238;8.092;2023-04-22T04:56:14;98730.66;;;10.29;80.68
68859;BME280;55864;49.238;8.092;2023-04-22T04:58:15;98737.06;;;10.34;80.77
68859;BME280;55864;49.238;8.092;2023-04-22T05:00:16;98736.56;;;10.31;80.94
68859;BME280;55864;49.238;8.092;2023-04-22T05:02:18;98736.41;;;10.32;80.77
68859;BME280;55864;49.238;8.092;2023-04-22T05:04:20;98739.34;;;10.29;80.75
68859;BME280;55864;49.238;8.092;2023-04-22T05:06:21;98734.25;;;10.28;80.92
68859;BME280;55864;49.238;8.092;2023-04-22T05:08:33;98743.94;;;10.27;80.70
68859;BME280;55864;49.238;8.092;2023-04-22T05:10:40;98750.00;;;10.28;80.83
68859;BME280;55864;49.238;8.092;2023-04-22T05:12:42;98754.09;;;10.30;80.26
68859;BME280;55864;49.238;8.092;2023-04-22T05:14:47;98750.00;;;10.28;80.64
68859;BME280;55864;49.238;8.092;2023-04-22T05:16:47;98755.38;;;9.93;80.49
68859;BME280;55864;49.238;8.092;2023-04-22T05:18:48;98755.72;;;9.72;81.04
68859;BME280;55864;49.238;8.092;2023-04-22T05:20:49;98755.31;;;9.59;81.45
68859;BME280;55864;49.238;8.092;2023-04-22T05:22:51;98762.13;;;9.52;80.55
68859;BME280;55864;49.238;8.092;2023-04-22T05:24:52;98766.13;;;9.38;81.12
68859;BME280;55864;49.238;8.092;2023-04-22T05:26:53;98770.47;;;9.30;80.82
68859;BME280;55864;49.238;8.092;2023-04-22T05:28:55;98766.97;;;9.21;81.25
68859;BME280;55864;49.238;8.092;2023-04-22T05:30:56;98769.50;;;9.13;81.74
68859;BME280;55864;49.238;8.092;2023-04-22T05:32:58;98772.41;;;9.10;82.33
68859;BME280;55864;49.238;8.092;2023-04-22T05:34:59;98774.91;;;9.12;82.68
68859;BME280;55864;49.238;8.092;2023-04-22T05:37:01;98771.31;;;9.13;83.00
68859;BME280;55864;49.238;8.092;2023-04-22T05:39:02;98778.22;;;9.14;82.74
68859;BME280;55864;49.238;8.092;2023-04-22T05:41:04;98775.72;;;9.12;83.66
68859;BME280;55864;49.238;8.092;2023-04-22T05:43:05;98778.50;;;9.11;84.35
68859;BME280;55864;49.238;8.092;2023-04-22T05:45:08;98775.72;;;9.12;84.74
68859;BME280;55864;49.238;8.092;2023-04-22T05:47:10;98772.13;;;9.13;85.38
68859;BME280;55864;49.238;8.092;2023-04-22T05:49:11;98768.09;;;9.19;85.19
68859;BME280;55864;49.238;8.092;2023-04-22T05:51:30;98773.03;;;9.22;85.47
68859;BME280;55864;49.238;8.092;2023-04-22T05:53:31;98778.94;;;9.24;85.29
68859;BME280;55864;49.238;8.092;2023-04-22T05:55:34;98787.19;;;9.29;86.25
68859;BME280;55864;49.238;8.092;2023-04-22T05:57:35;98785.09;;;9.32;86.35
68859;BME280;55864;49.238;8.092;2023-04-22T05:59:38;98785.91;;;9.33;85.16
68859;BME280;55864;49.238;8.092;2023-04-22T06:01:41;98785.28;;;9.39;85.45
68859;BME280;55864;49.238;8.092;2023-04-22T06:03:42;98780.44;;;9.44;85.41
68859;BME280;55864;49.238;8.092;2023-04-22T06:05:43;98779.16;;;9.48;86.32
68859;BME280;55864;49.238;8.092;2023-04-22T06:07:43;98775.91;;;9.54;86.94
68859;BME280;55864;49.238;8.092;2023-04-22T06:09:44;98776.28;;;9.59;88.02
68859;BME280;55864;49.238;8.092;2023-04-22T06:11:44;98770.56;;;9.64;88.32
68859;BME280;55864;49.238;8.092;2023-04-22T06:16:01;98767.06;;;9.73;88.98
68859;BME280;55864;49.238;8.092;2023-04-22T06:18:03;98767.69;;;9.75;89.92
68859;BME280;55864;49.238;8.092;2023-04-22T06:20:05;98767.91;;;9.81;89.67
68859;BME280;55864;49.238;8.092;2023-04-22T06:22:06;98760.25;;;9.88;89.86
68859;BME280;55864;49.238;8.092;2023-04-22T06:24:07;98773.06;;;9.91;90.16
68859;BME280;55864;49.238;8.092;2023-04-22T06:26:07;98769.34;;;10.01;91.04
68859;BME280;55864;49.238;8.092;2023-04-22T06:28:10;98774.59;;;10.01;90.84
68859;BME280;55864;49.238;8.092;2023-04-22T06:30:11;98769.13;;;10.12;90.26
68859;BME280;55864;49.238;8.092;2023-04-22T06:32:14;98771.09;;;10.18;89.67
68859;BME280;55864;49.238;8.092;2023-04-22T06:34:17;98774.56;;;10.19;89.24
68859;BME280;55864;49.238;8.092;2023-04-22T06:36:18;98770.81;;;10.21;90.27
68859;BME280;55864;49.238;8.092;2023-04-22T06:38:24;98768.38;;;10.28;90.83
68859;BME280;55864;49.238;8.092;2023-04-22T06:40:57;98775.31;;;10.37;90.44
68859;BME280;55864;49.238;8.092;2023-04-22T06:43:02;98768.63;;;10.43;91.01
68859;BME280;55864;49.238;8.092;2023-04-22T06:45:31;98779.28;;;10.49;90.34
68859;BME280;55864;49.238;8.092;2023-04-22T06:47:51;98771.91;;;10.53;88.22
68859;BME280;55864;49.238;8.092;2023-04-22T06:49:57;98764.06;;;10.61;86.94
68859;BME280;55864;49.238;8.092;2023-04-22T06:52:02;98768.84;;;10.65;86.24
68859;BME280;55864;49.238;8.092;2023-04-22T06:54:03;98771.31;;;10.67;85.26
68859;BME280;55864;49.238;8.092;2023-04-22T06:56:35;98772.31;;;10.74;85.47
68859;BME280;55864;49.238;8.092;2023-04-22T06:58:43;98778.91;;;10.78;85.38
68859;BME280;55864;49.238;8.092;2023-04-22T07:00:44;98780.03;;;10.75;84.11
68859;BME280;55864;49.238;8.092;2023-04-22T07:02:44;98780.16;;;10.66;83.51
68859;BME280;55864;49.238;8.092;2023-04-22T07:04:45;98785.66;;;10.80;83.64
68859;BME280;55864;49.238;8.092;2023-04-22T07:06:47;98782.16;;;10.72;82.89
68859;BME280;55864;49.238;8.092;2023-04-22T07:08:48;98789.22;;;10.71;83.31
68859;BME280;55864;49.238;8.092;2023-04-22T07:10:49;98788.09;;;10.82;83.46
68859;BME280;55864;49.238;8.092;2023-04-22T07:13:10;98796.44;;;10.69;83.42
68859;BME280;55864;49.238;8.092;2023-04-22T07:15:11;98796.09;;;10.64;83.81
68859;BME280;55864;49.238;8.092;2023-04-22T07:17:11;98791.66;;;10.65;84.28
68859;BME280;55864;49.238;8.092;2023-04-22T07:19:12;98792.63;;;10.64;85.42
68859;BME280;55864;49.238;8.092;2023-04-22T07:21:12;98782.66;;;10.67;85.58
68859;BME280;55864;49.238;8.092;2023-04-22T07:23:14;98789.22;;;10.71;85.57
68859;BME280;55864;49.238;8.092;2023-04-22T07:25:15;98788.06;;;10.74;85.79
68859;BME280;55864;49.238;8.092;2023-04-22T07:27:16;98783.03;;;10.80;86.62
68859;BME280;55864;49.238;8.092;2023-04-22T07:29:16;98779.59;;;10.88;87.34
68859;BME280;55864;49.238;8.092;2023-04-22T07:31:17;98782.72;;;10.91;87.43
68859;BME280;55864;49.238;8.092;2023-04-22T07:33:18;98776.00;;;10.97;87.87
68859;BME280;55864;49.238;8.092;2023-04-22T07:35:18;98769.25;;;11.02;87.89
68859;BME280;55864;49.238;8.092;2023-04-22T07:37:20;98771.25;;;11.08;88.36
68859;BME280;55864;49.238;8.092;2023-04-22T07:39:22;98771.41;;;11.15;88.89
68859;BME280;55864;49.238;8.092;2023-04-22T07:41:23;98770.59;;;11.22;88.62
68859;BME280;55864;49.238;8.092;2023-04-22T07:43:23;98772.25;;;11.39;88.37
68859;BME280;55864;49.238;8.092;2023-04-22T07:45:24;98767.34;;;11.45;87.05
68859;BME280;55864;49.238;8.092;2023-04-22T07:47:24;98765.84;;;11.50;87.12
68859;BME280;55864;49.238;8.092;2023-04-22T07:49:25;98770.78;;;11.53;88.05
68859;BME280;55864;49.238;8.092;2023-04-22T07:51:25;98761.59;;;11.65;88.69
68859;BME280;55864;49.238;8.092;2023-04-22T07:53:26;98770.47;;;11.72;88.90
68859;BME280;55864;49.238;8.092;2023-04-22T07:55:28;98766.53;;;11.76;88.35
68859;BME280;55864;49.238;8.092;2023-04-22T07:57:29;98761.38;;;11.91;88.23
68859;BME280;55864;49.238;8.092;2023-04-22T07:59:29;98759.88;;;11.96;87.29
68859;BME280;55864;49.238;8.092;2023-04-22T08:01:30;98764.31;;;12.04;87.36
68859;BME280;55864;49.238;8.092;2023-04-22T08:03:30;98753.41;;;12.15;88.17
68859;BME280;55864;49.238;8.092;2023-04-22T08:05:31;98751.78;;;12.22;87.26
68859;BME280;55864;49.238;8.092;2023-04-22T08:07:32;98747.63;;;12.36;87.15
68859;BME280;55864;49.238;8.092;2023-04-22T08:09:32;98747.53;;;12.52;87.53
68859;BME280;55864;49.238;8.092;2023-04-22T08:11:34;98747.78;;;12.65;87.42
68859;BME280;55864;49.238;8.092;2023-04-22T08:13:35;98748.91;;;12.70;86.34
68859;BME280;55864;49.238;8.092;2023-04-22T08:15:35;98744.63;;;12.77;82.50
68859;BME280;55864;49.238;8.092;2023-04-22T08:17:36;98748.28;;;12.91;81.79
68859;BME280;55864;49.238;8.092;2023-04-22T08:19:36;98744.13;;;13.04;81.66
68859;BME280;55864;49.238;8.092;2023-04-22T08:21:37;98748.00;;;13.16;82.38
68859;BME280;55864;49.238;8.092;2023-04-22T08:23:37;98749.22;;;13.29;81.97
68859;BME280;55864;49.238;8.092;2023-04-22T08:25:38;98751.56;;;13.46;79.37
68859;BME280;55864;49.238;8.092;2023-04-22T08:27:40;98742.03;;;13.45;78.78
68859;BME280;55864;49.238;8.092;2023-04-22T08:29:40;98743.47;;;13.48;77.71
68859;BME280;55864;49.238;8.092;2023-04-22T08:31:41;98744.03;;;13.58;76.80
68859;BME280;55864;49.238;8.092;2023-04-22T08:33:41;98744.06;;;13.72;76.76
68859;BME280;55864;49.238;8.092;2023-04-22T08:35:42;98738.91;;;13.79;76.45
68859;BME280;55864;49.238;8.092;2023-04-22T08:37:43;98734.53;;;14.00;74.80
68859;BME280;55864;49.238;8.092;2023-04-22T08:39:43;98738.75;;;14.09;74.37
68859;BME280;55864;49.238;8.092;2023-04-22T08:41:44;98738.44;;;14.04;73.54
68859;BME280;55864;49.238;8.092;2023-04-22T08:43:46;98741.91;;;14.19;72.08
68859;BME280;55864;49.238;8.092;2023-04-22T08:45:48;98737.72;;;14.25;73.29
68859;BME280;55864;49.238;8.092;2023-04-22T08:47:48;98743.31;;;14.30;74.29
68859;BME280;55864;49.238;8.092;2023-04-22T08:49:50;98741.56;;;14.52;72.74
68859;BME280;55864;49.238;8.092;2023-04-22T08:51:52;98738.00;;;14.59;72.30
68859;BME280;55864;49.238;8.092;2023-04-22T08:53:53;98741.72;;;14.65;69.77
68859;BME280;55864;49.238;8.092;2023-04-22T08:55:55;98750.91;;;14.69;69.39
68859;BME280;55864;49.238;8.092;2023-04-22T08:57:56;98748.91;;;14.71;68.46
68859;BME280;55864;49.238;8.092;2023-04-22T08:59:59;98743.91;;;14.76;67.01
68859;BME280;55864;49.238;8.092;2023-04-22T09:02:01;98746.25;;;14.85;67.26
68859;BME280;55864;49.238;8.092;2023-04-22T09:04:02;98740.28;;;14.98;65.73
68859;BME280;55864;49.238;8.092;2023-04-22T09:06:03;98734.88;;;15.06;65.14
68859;BME280;55864;49.238;8.092;2023-04-22T09:08:05;98739.03;;;15.15;64.67
68859;BME280;55864;49.238;8.092;2023-04-22T09:10:07;98725.25;;;15.20;64.89
68859;BME280;55864;49.238;8.092;2023-04-22T09:12:07;98712.16;;;15.39;64.78
68859;BME280;55864;49.238;8.092;2023-04-22T09:14:08;98717.59;;;15.52;63.70
68859;BME280;55864;49.238;8.092;2023-04-22T09:16:10;98723.69;;;15.74;62.35
68859;BME280;55864;49.238;8.092;2023-04-22T09:18:10;98719.66;;;15.78;61.44
68859;BME280;55864;49.238;8.092;2023-04-22T09:20:11;98723.56;;;15.82;63.49
68859;BME280;55864;49.238;8.092;2023-04-22T09:22:12;98712.41;;;15.93;61.10
68859;BME280;55864;49.238;8.092;2023-04-22T09:24:14;98711.19;;;15.95;62.21
68859;BME280;55864;49.238;8.092;2023-04-22T09:26:18;98710.25;;;16.10;62.58
68859;BME280;55864;49.238;8.092;2023-04-22T09:28:18;98712.13;;;16.16;63.96
68859;BME280;55864;49.238;8.092;2023-04-22T09:30:22;98706.53;;;16.38;63.89
68859;BME280;55864;49.238;8.092;2023-04-22T09:32:24;98708.69;;;16.56;62.84
68859;BME280;55864;49.238;8.092;2023-04-22T09:34:26;98701.16;;;16.66;60.53
68859;BME280;55864;49.238;8.092;2023-04-22T09:36:27;98699.53;;;16.65;61.23
68859;BME280;55864;49.238;8.092;2023-04-22T09:38:30;98702.97;;;16.65;60.89
68859;BME280;55864;49.238;8.092;2023-04-22T09:40:31;98700.78;;;16.69;61.12
68859;BME280;55864;49.238;8.092;2023-04-22T09:42:46;98703.81;;;16.66;60.01
68859;BME280;55864;49.238;8.092;2023-04-22T09:44:48;98700.53;;;16.64;60.63
68859;BME280;55864;49.238;8.092;2023-04-22T09:46:49;98697.69;;;16.65;59.72
68859;BME280;55864;49.238;8.092;2023-04-22T09:48:51;98695.47;;;16.69;59.85
68859;BME280;55864;49.238;8.092;2023-04-22T09:50:51;98695.72;;;16.87;60.31
68859;BME280;55864;49.238;8.092;2023-04-22T09:52:57;98696.19;;;17.23;59.49
68859;BME280;55864;49.238;8.092;2023-04-22T09:54:58;98698.22;;;17.34;58.54
68859;BME280;55864;49.238;8.092;2023-04-22T09:56:58;98686.78;;;17.34;58.73
68859;BME280;55864;49.238;8.092;2023-04-22T09:59:00;98700.69;;;17.49;59.99
68859;BME280;55864;49.238;8.092;2023-04-22T10:01:00;98691.31;;;17.59;59.78
68859;BME280;55864;49.238;8.092;2023-04-22T10:03:01;98692.94;;;17.60;60.71
68859;BME280;55864;49.238;8.092;2023-04-22T10:05:03;98688.66;;;17.59;61.14
68859;BME280;55864;49.238;8.092;2023-04-22T10:07:04;98686.38;;;17.89;58.15
68859;BME280;55864;49.238;8.092;2023-04-22T10:09:05;98688.19;;;17.88;57.44
68859;BME280;55864;49.238;8.092;2023-04-22T10:11:05;98688.19;;;17.88;57.32
68859;BME280;55864;49.238;8.092;2023-04-22T10:13:06;98682.88;;;17.88;56.67
68859;BME280;55864;49.238;8.092;2023-04-22T10:15:07;98675.31;;;17.99;54.83
68859;BME280;55864;49.238;8.092;2023-04-22T10:17:08;98679.38;;;18.08;55.20
68859;BME280;55864;49.238;8.092;2023-04-22T10:19:11;98694.53;;;18.07;54.31
68859;BME280;55864;49.238;8.092;2023-04-22T10:21:16;98682.84;;;18.08;52.68
68859;BME280;55864;49.238;8.092;2023-04-22T10:23:19;98688.78;;;18.17;52.42
68859;BME280;55864;49.238;8.092;2023-04-22T10:25:24;98694.09;;;18.17;52.32
68859;BME280;55864;49.238;8.092;2023-04-22T10:27:25;98682.63;;;18.16;52.29
68859;BME280;55864;49.238;8.092;2023-04-22T10:29:27;98690.78;;;18.21;51.16
68859;BME280;55864;49.238;8.092;2023-04-22T10:31:36;98683.81;;;18.33;51.73
68859;BME280;55864;49.238;8.092;2023-04-22T10:33:37;98691.34;;;18.36;49.98
68859;BME280;55864;49.238;8.092;2023-04-22T10:35:38;98687.88;;;18.49;50.31
68859;BME280;55864;49.238;8.092;2023-04-22T10:37:43;98685.38;;;18.54;49.70
68859;BME280;55864;49.238;8.092;2023-04-22T10:40:07;98672.91;;;18.54;50.16
68859;BME280;55864;49.238;8.092;2023-04-22T10:42:11;98680.06;;;18.54;51.38
68859;BME280;55864;49.238;8.092;2023-04-22T10:44:12;98674.91;;;18.59;51.08
68859;BME280;55864;49.238;8.092;2023-04-22T10:48:50;98682.63;;;18.73;50.46
68859;BME280;55864;49.238;8.092;2023-04-22T10:50:51;98678.47;;;18.77;49.63
68859;BME280;55864;49.238;8.092;2023-04-22T10:52:56;98670.50;;;18.77;49.54
68859;BME280;55864;49.238;8.092;2023-04-22T10:54:58;98674.16;;;18.83;49.28